sensor_id;sensor_type;location;lat;lon;timestamp;P1;durP1;ratioP1;P2;durP2;ratioP2
65651;SDS011;52350;51.546;7.002;2022-09-12T00:00:00;18.52;;;9.68;;
65651;SDS011;52350;51.546;7.002;2022-09-12T00:02:26;18.85;;;10.48;;
65651;SDS011;52350;51.546;7.002;2022-09-12T00:04:51;16.90;;;9.32;;
65651;SDS011;52350;51.546;7.002;2022-09-12T00:07:17;17.98;;;10.00;;
65651;SDS011;52350;51.546;7.002;2022-09-12T00:09:42;21.02;;;9.63;;
65651;SDS011;52350;51.546;7.002;2022-09-12T00:12:08;20.08;;;11.13;;
65651;SDS011;52350;51.546;7.002;2022-09-12T00:14:34;21.55;;;10.48;;
65651;SDS011;52350;51.546;7.002;2022-09-12T00:17:00;17.02;;;9.98;;
65651;SDS011;52350;51.546;7.002;2022-09-12T00:19:27;16.65;;;9.82;;
65651;SDS011;52350;51.546;7.002;2022-09-12T00:21:55;17.85;;;9.75;;
65651;SDS011;52350;51.546;7.002;2022-09-12T00:24:21;18.25;;;10.32;;
65651;SDS011;52350;51.546;7.002;2022-09-12T00:26:47;18.73;;;10.40;;
65651;SDS011;52350;51.546;7.002;2022-09-12T00:29:16;18.90;;;10.50;;
65651;SDS011;52350;51.546;7.002;2022-09-12T00:31:45;16.23;;;8.98;;
65651;SDS011;52350;51.546;7.002;2022-09-12T00:34:11;18.02;;;9.93;;
65651;SDS011;52350;51.546;7.002;2022-09-12T00:36:38;17.98;;;9.32;;
65651;SDS011;52350;51.546;7.002;2022-09-12T00:39:04;18.65;;;10.45;;
65651;SDS011;52350;51.546;7.002;2022-09-12T00:41:33;17.85;;;9.48;;
65651;SDS011;52350;51.546;7.002;2022-09-12T00:49:12;18.23;;;8.68;;
65651;SDS011;52350;51.546;7.002;2022-09-12T00:54:46;19.48;;;10.18;;
65651;SDS011;52350;51.546;7.002;2022-09-12T00:57:19;17.70;;;9.38;;
65651;SDS011;52350;51.546;7.002;2022-09-12T00:59:55;17.92;;;9.90;;
65651;SDS011;52350;51.546;7.002;2022-09-12T01:02:41;17.20;;;10.05;;
65651;SDS011;52350;51.546;7.002;2022-09-12T01:05:10;19.50;;;10.70;;
65651;SDS011;52350;51.546;7.002;2022-09-12T01:07:37;18.85;;;9.35;;
65651;SDS011;52350;51.546;7.002;2022-09-12T01:10:06;17.65;;;10.13;;
65651;SDS011;52350;51.546;7.002;2022-09-12T01:12:34;19.40;;;9.75;;
65651;SDS011;52350;51.546;7.002;2022-09-12T01:17:44;17.27;;;9.55;;
65651;SDS011;52350;51.546;7.002;2022-09-12T01:20:32;21.40;;;9.40;;
65651;SDS011;52350;51.546;7.002;2022-09-12T01:26:49;16.52;;;9.88;;
65651;SDS011;52350;51.546;7.002;2022-09-12T01:32:07;17.52;;;9.50;;
65651;SDS011;52350;51.546;7.002;2022-09-12T01:34:45;18.40;;;10.02;;
65651;SDS011;52350;51.546;7.002;2022-09-12T01:40:12;18.20;;;9.38;;
65651;SDS011;52350;51.546;7.002;2022-09-12T01:43:08;16.88;;;9.57;;
65651;SDS011;52350;51.546;7.002;2022-09-12T01:48:47;17.08;;;8.60;;
65651;SDS011;52350;51.546;7.002;2022-09-12T01:54:07;18.50;;;9.50;;
65651;SDS011;52350;51.546;7.002;2022-09-12T01:56:40;16.25;;;9.85;;
65651;SDS011;52350;51.546;7.002;2022-09-12T01:59:14;17.15;;;8.55;;
65651;SDS011;52350;51.546;7.002;2022-09-12T02:02:06;16.88;;;8.45;;
65651;SDS011;52350;51.546;7.002;2022-09-12T02:04:47;16.77;;;8.88;;
65651;SDS011;52350;51.546;7.002;2022-09-12T02:07:46;16.88;;;9.07;;
65651;SDS011;52350;51.546;7.002;2022-09-12T02:12:59;16.40;;;8.82;;
65651;SDS011;52350;51.546;7.002;2022-09-12T02:15:37;16.80;;;8.77;;
65651;SDS011;52350;51.546;7.002;2022-09-12T02:18:10;17.30;;;9.23;;
65651;SDS011;52350;51.546;7.002;2022-09-12T02:20:40;15.45;;;8.65;;
65651;SDS011;52350;51.546;7.002;2022-09-12T02:23:10;18.63;;;8.85;;
65651;SDS011;52350;51.546;7.002;2022-09-12T02:25:47;15.82;;;8.30;;
65651;SDS011;52350;51.546;7.002;2022-09-12T02:28:19;15.93;;;8.77;;
65651;SDS011;52350;51.546;7.002;2022-09-12T02:34:27;15.68;;;8.73;;
65651;SDS011;52350;51.546;7.002;2022-09-12T02:39:57;17.63;;;8.63;;
65651;SDS011;52350;51.546;7.002;2022-09-12T02:42:24;22.02;;;8.98;;
65651;SDS011;52350;51.546;7.002;2022-09-12T02:44:51;17.35;;;8.82;;
65651;SDS011;52350;51.546;7.002;2022-09-12T02:47:34;16.58;;;8.52;;
65651;SDS011;52350;51.546;7.002;2022-09-12T02:50:07;17.65;;;9.20;;
65651;SDS011;52350;51.546;7.002;2022-09-12T02:52:34;18.65;;;8.73;;
65651;SDS011;52350;51.546;7.002;2022-09-12T02:55:00;16.48;;;8.95;;
65651;SDS011;52350;51.546;7.002;2022-09-12T02:57:30;15.52;;;8.43;;
65651;SDS011;52350;51.546;7.002;2022-09-12T02:59:56;16.55;;;8.18;;
65651;SDS011;52350;51.546;7.002;2022-09-12T03:05:26;16.33;;;8.95;;
65651;SDS011;52350;51.546;7.002;2022-09-12T03:08:19;19.08;;;8.52;;
65651;SDS011;52350;51.546;7.002;2022-09-12T03:11:36;14.82;;;7.93;;
65651;SDS011;52350;51.546;7.002;2022-09-12T03:26:11;19.90;;;9.38;;
65651;SDS011;52350;51.546;7.002;2022-09-12T03:28:40;17.25;;;9.40;;
65651;SDS011;52350;51.546;7.002;2022-09-12T03:31:12;18.27;;;9.23;;
65651;SDS011;52350;51.546;7.002;2022-09-12T03:33:40;19.67;;;9.35;;
65651;SDS011;52350;51.546;7.002;2022-09-12T03:36:21;16.30;;;8.80;;
65651;SDS011;52350;51.546;7.002;2022-09-12T03:38:49;18.92;;;9.02;;
65651;SDS011;52350;51.546;7.002;2022-09-12T03:41:16;15.80;;;9.10;;
65651;SDS011;52350;51.546;7.002;2022-09-12T03:43:42;15.55;;;9.00;;
65651;SDS011;52350;51.546;7.002;2022-09-12T03:46:08;16.75;;;8.98;;
65651;SDS011;52350;51.546;7.002;2022-09-12T03:48:34;17.17;;;8.55;;
65651;SDS011;52350;51.546;7.002;2022-09-12T03:51:01;18.40;;;9.02;;
65651;SDS011;52350;51.546;7.002;2022-09-12T03:53:29;16.08;;;8.70;;
65651;SDS011;52350;51.546;7.002;2022-09-12T03:55:56;17.63;;;8.63;;
65651;SDS011;52350;51.546;7.002;2022-09-12T03:58:23;14.68;;;8.60;;
65651;SDS011;52350;51.546;7.002;2022-09-12T04:00:49;19.58;;;9.90;;
65651;SDS011;52350;51.546;7.002;2022-09-12T04:03:15;19.50;;;9.20;;
65651;SDS011;52350;51.546;7.002;2022-09-12T04:05:41;18.10;;;8.90;;
65651;SDS011;52350;51.546;7.002;2022-09-12T04:08:06;20.88;;;9.82;;
65651;SDS011;52350;51.546;7.002;2022-09-12T04:10:32;20.30;;;9.95;;
65651;SDS011;52350;51.546;7.002;2022-09-12T04:12:57;17.67;;;8.98;;
65651;SDS011;52350;51.546;7.002;2022-09-12T04:15:23;21.88;;;9.50;;
65651;SDS011;52350;51.546;7.002;2022-09-12T04:17:48;20.58;;;9.40;;
65651;SDS011;52350;51.546;7.002;2022-09-12T04:20:14;19.73;;;9.52;;
65651;SDS011;52350;51.546;7.002;2022-09-12T04:22:40;18.70;;;9.90;;
65651;SDS011;52350;51.546;7.002;2022-09-12T04:25:06;18.08;;;9.98;;
65651;SDS011;52350;51.546;7.002;2022-09-12T04:27:33;18.67;;;9.68;;
65651;SDS011;52350;51.546;7.002;2022-09-12T04:29:59;24.60;;;10.07;;
65651;SDS011;52350;51.546;7.002;2022-09-12T04:32:28;22.75;;;11.25;;
65651;SDS011;52350;51.546;7.002;2022-09-12T04:34:55;17.60;;;9.70;;
65651;SDS011;52350;51.546;7.002;2022-09-12T04:37:21;21.58;;;9.40;;
65651;SDS011;52350;51.546;7.002;2022-09-12T04:39:48;24.95;;;9.27;;
65651;SDS011;52350;51.546;7.002;2022-09-12T04:42:14;22.63;;;9.95;;
65651;SDS011;52350;51.546;7.002;2022-09-12T04:44:40;19.73;;;9.98;;
65651;SDS011;52350;51.546;7.002;2022-09-12T04:47:06;23.95;;;9.82;;
65651;SDS011;52350;51.546;7.002;2022-09-12T04:49:32;22.55;;;9.73;;
65651;SDS011;52350;51.546;7.002;2022-09-12T04:51:58;16.42;;;9.27;;
65651;SDS011;52350;51.546;7.002;2022-09-12T04:54:23;23.13;;;10.60;;
65651;SDS011;52350;51.546;7.002;2022-09-12T04:56:50;19.85;;;10.20;;
65651;SDS011;52350;51.546;7.002;2022-09-12T04:59:17;22.02;;;9.88;;
65651;SDS011;52350;51.546;7.002;2022-09-12T05:01:44;21.98;;;9.85;;
65651;SDS011;52350;51.546;7.002;2022-09-12T05:04:10;21.75;;;10.30;;
65651;SDS011;52350;51.546;7.002;2022-09-12T05:06:37;18.15;;;9.20;;
65651;SDS011;52350;51.546;7.002;2022-09-12T05:09:05;20.85;;;9.38;;
65651;SDS011;52350;51.546;7.002;2022-09-12T05:11:34;21.13;;;9.75;;
65651;SDS011;52350;51.546;7.002;2022-09-12T05:14:02;21.52;;;9.75;;
65651;SDS011;52350;51.546;7.002;2022-09-12T05:16:28;26.23;;;9.82;;
65651;SDS011;52350;51.546;7.002;2022-09-12T05:18:55;19.13;;;9.45;;
65651;SDS011;52350;51.546;7.002;2022-09-12T05:21:22;23.40;;;10.35;;
65651;SDS011;52350;51.546;7.002;2022-09-12T05:23:50;23.25;;;10.55;;
65651;SDS011;52350;51.546;7.002;2022-09-12T05:26:17;16.83;;;9.57;;
65651;SDS011;52350;51.546;7.002;2022-09-12T05:28:44;20.38;;;9.73;;
65651;SDS011;52350;51.546;7.002;2022-09-12T05:31:13;21.50;;;9.77;;
65651;SDS011;52350;51.546;7.002;2022-09-12T05:33:46;19.13;;;10.05;;
65651;SDS011;52350;51.546;7.002;2022-09-12T05:36:15;21.25;;;9.70;;
65651;SDS011;52350;51.546;7.002;2022-09-12T05:38:46;19.17;;;9.00;;
65651;SDS011;52350;51.546;7.002;2022-09-12T05:41:19;18.55;;;9.27;;
65651;SDS011;52350;51.546;7.002;2022-09-12T05:43:52;18.25;;;9.93;;
65651;SDS011;52350;51.546;7.002;2022-09-12T05:46:24;19.65;;;9.38;;
65651;SDS011;52350;51.546;7.002;2022-09-12T05:48:55;18.52;;;9.80;;
65651;SDS011;52350;51.546;7.002;2022-09-12T05:51:26;24.48;;;9.68;;
65651;SDS011;52350;51.546;7.002;2022-09-12T05:54:04;23.73;;;10.40;;
65651;SDS011;52350;51.546;7.002;2022-09-12T05:56:33;20.20;;;10.10;;
65651;SDS011;52350;51.546;7.002;2022-09-12T05:59:04;21.83;;;10.18;;
65651;SDS011;52350;51.546;7.002;2022-09-12T06:01:36;19.58;;;9.60;;
65651;SDS011;52350;51.546;7.002;2022-09-12T06:04:03;19.00;;;9.55;;
65651;SDS011;52350;51.546;7.002;2022-09-12T06:06:30;19.73;;;9.65;;
65651;SDS011;52350;51.546;7.002;2022-09-12T06:11:29;19.45;;;10.48;;
65651;SDS011;52350;51.546;7.002;2022-09-12T06:13:57;17.63;;;9.10;;
65651;SDS011;52350;51.546;7.002;2022-09-12T06:16:28;18.75;;;9.55;;
65651;SDS011;52350;51.546;7.002;2022-09-12T06:19:00;21.00;;;10.90;;
65651;SDS011;52350;51.546;7.002;2022-09-12T06:21:30;20.38;;;9.82;;
65651;SDS011;52350;51.546;7.002;2022-09-12T06:23:58;21.33;;;11.68;;
65651;SDS011;52350;51.546;7.002;2022-09-12T06:26:24;22.90;;;10.93;;
65651;SDS011;52350;51.546;7.002;2022-09-12T06:28:52;17.70;;;10.30;;
65651;SDS011;52350;51.546;7.002;2022-09-12T06:31:20;21.42;;;10.23;;
65651;SDS011;52350;51.546;7.002;2022-09-12T06:33:53;23.75;;;10.68;;
65651;SDS011;52350;51.546;7.002;2022-09-12T06:36:21;18.73;;;10.70;;
65651;SDS011;52350;51.546;7.002;2022-09-12T06:38:54;21.45;;;11.32;;
65651;SDS011;52350;51.546;7.002;2022-09-12T06:41:24;21.53;;;11.13;;
65651;SDS011;52350;51.546;7.002;2022-09-12T06:43:49;24.75;;;11.35;;
65651;SDS011;52350;51.546;7.002;2022-09-12T06:46:16;23.48;;;11.63;;
65651;SDS011;52350;51.546;7.002;2022-09-12T06:48:42;22.35;;;11.30;;
65651;SDS011;52350;51.546;7.002;2022-09-12T06:51:11;22.63;;;11.35;;
65651;SDS011;52350;51.546;7.002;2022-09-12T06:53:40;22.60;;;11.38;;
65651;SDS011;52350;51.546;7.002;2022-09-12T06:56:09;17.55;;;10.68;;
65651;SDS011;52350;51.546;7.002;2022-09-12T06:58:44;22.08;;;11.35;;
65651;SDS011;52350;51.546;7.002;2022-09-12T07:03:41;22.08;;;11.93;;
65651;SDS011;52350;51.546;7.002;2022-09-12T07:06:13;23.40;;;13.32;;
65651;SDS011;52350;51.546;7.002;2022-09-12T07:08:41;21.13;;;11.07;;
65651;SDS011;52350;51.546;7.002;2022-09-12T07:13:48;24.13;;;12.43;;
65651;SDS011;52350;51.546;7.002;2022-09-12T07:16:16;27.50;;;12.10;;
65651;SDS011;52350;51.546;7.002;2022-09-12T07:18:43;21.88;;;12.43;;
65651;SDS011;52350;51.546;7.002;2022-09-12T07:21:11;22.98;;;11.85;;
65651;SDS011;52350;51.546;7.002;2022-09-12T07:23:38;23.02;;;12.30;;
65651;SDS011;52350;51.546;7.002;2022-09-12T07:26:06;19.00;;;11.05;;
65651;SDS011;52350;51.546;7.002;2022-09-12T07:28:34;22.55;;;11.77;;
65651;SDS011;52350;51.546;7.002;2022-09-12T07:31:18;25.13;;;12.38;;
65651;SDS011;52350;51.546;7.002;2022-09-12T07:33:49;22.38;;;12.25;;
65651;SDS011;52350;51.546;7.002;2022-09-12T07:36:17;22.45;;;11.50;;
65651;SDS011;52350;51.546;7.002;2022-09-12T07:38:46;23.83;;;12.65;;
65651;SDS011;52350;51.546;7.002;2022-09-12T07:41:13;21.55;;;11.65;;
65651;SDS011;52350;51.546;7.002;2022-09-12T07:43:43;18.05;;;10.13;;
65651;SDS011;52350;51.546;7.002;2022-09-12T07:46:10;20.10;;;10.98;;
65651;SDS011;52350;51.546;7.002;2022-09-12T07:48:36;26.35;;;12.80;;
65651;SDS011;52350;51.546;7.002;2022-09-12T07:51:04;19.38;;;11.57;;
65651;SDS011;52350;51.546;7.002;2022-09-12T07:53:34;17.75;;;10.55;;
65651;SDS011;52350;51.546;7.002;2022-09-12T07:56:07;19.65;;;10.07;;
65651;SDS011;52350;51.546;7.002;2022-09-12T07:58:35;19.25;;;11.00;;
65651;SDS011;52350;51.546;7.002;2022-09-12T08:01:11;19.35;;;11.00;;
65651;SDS011;52350;51.546;7.002;2022-09-12T08:03:43;23.25;;;12.07;;
65651;SDS011;52350;51.546;7.002;2022-09-12T08:06:13;19.63;;;11.45;;
65651;SDS011;52350;51.546;7.002;2022-09-12T08:08:45;21.48;;;11.30;;
65651;SDS011;52350;51.546;7.002;2022-09-12T08:11:13;21.80;;;11.32;;
65651;SDS011;52350;51.546;7.002;2022-09-12T08:13:42;22.87;;;10.63;;
65651;SDS011;52350;51.546;7.002;2022-09-12T08:16:13;21.40;;;11.70;;
65651;SDS011;52350;51.546;7.002;2022-09-12T08:18:45;24.05;;;11.70;;
65651;SDS011;52350;51.546;7.002;2022-09-12T08:21:12;23.55;;;10.68;;
65651;SDS011;52350;51.546;7.002;2022-09-12T08:23:44;21.75;;;11.27;;
65651;SDS011;52350;51.546;7.002;2022-09-12T08:26:11;22.75;;;12.02;;
65651;SDS011;52350;51.546;7.002;2022-09-12T08:28:38;21.50;;;11.02;;
65651;SDS011;52350;51.546;7.002;2022-09-12T08:31:09;22.98;;;10.65;;
65651;SDS011;52350;51.546;7.002;2022-09-12T08:33:38;21.92;;;10.48;;
65651;SDS011;52350;51.546;7.002;2022-09-12T08:36:09;21.40;;;11.73;;
65651;SDS011;52350;51.546;7.002;2022-09-12T08:38:38;20.60;;;11.00;;
65651;SDS011;52350;51.546;7.002;2022-09-12T08:52:50;17.92;;;10.35;;
65651;SDS011;52350;51.546;7.002;2022-09-12T08:55:30;20.55;;;10.68;;
65651;SDS011;52350;51.546;7.002;2022-09-12T08:57:58;22.05;;;10.90;;
65651;SDS011;52350;51.546;7.002;2022-09-12T09:00:29;18.52;;;11.02;;
65651;SDS011;52350;51.546;7.002;2022-09-12T09:06:26;19.08;;;10.00;;
65651;SDS011;52350;51.546;7.002;2022-09-12T09:09:40;17.77;;;10.18;;
65651;SDS011;52350;51.546;7.002;2022-09-12T09:12:25;19.45;;;9.93;;
65651;SDS011;52350;51.546;7.002;2022-09-12T09:15:16;23.77;;;10.10;;
65651;SDS011;52350;51.546;7.002;2022-09-12T09:18:00;22.10;;;10.82;;
65651;SDS011;52350;51.546;7.002;2022-09-12T09:20:43;17.48;;;9.43;;
65651;SDS011;52350;51.546;7.002;2022-09-12T09:28:42;18.13;;;9.35;;
65651;SDS011;52350;51.546;7.002;2022-09-12T09:31:16;20.08;;;9.70;;
65651;SDS011;52350;51.546;7.002;2022-09-12T09:33:46;25.02;;;10.07;;
65651;SDS011;52350;51.546;7.002;2022-09-12T09:36:20;30.73;;;10.40;;
65651;SDS011;52350;51.546;7.002;2022-09-12T09:39:33;18.35;;;10.40;;
65651;SDS011;52350;51.546;7.002;2022-09-12T09:42:43;18.40;;;10.32;;
65651;SDS011;52350;51.546;7.002;2022-09-12T09:45:21;19.23;;;9.43;;
65651;SDS011;52350;51.546;7.002;2022-09-12T09:50:40;14.18;;;8.48;;
65651;SDS011;52350;51.546;7.002;2022-09-12T09:53:08;29.55;;;9.90;;
65651;SDS011;52350;51.546;7.002;2022-09-12T09:55:50;17.80;;;8.13;;
65651;SDS011;52350;51.546;7.002;2022-09-12T09:58:27;17.30;;;8.77;;
65651;SDS011;52350;51.546;7.002;2022-09-12T10:00:58;20.70;;;7.95;;
65651;SDS011;52350;51.546;7.002;2022-09-12T10:03:48;16.92;;;7.55;;
65651;SDS011;52350;51.546;7.002;2022-09-12T10:06:21;15.52;;;7.15;;
65651;SDS011;52350;51.546;7.002;2022-09-12T10:09:05;15.80;;;8.18;;
65651;SDS011;52350;51.546;7.002;2022-09-12T10:11:37;12.73;;;5.90;;
65651;SDS011;52350;51.546;7.002;2022-09-12T10:14:04;12.35;;;5.47;;
65651;SDS011;52350;51.546;7.002;2022-09-12T10:16:50;9.70;;;4.80;;
65651;SDS011;52350;51.546;7.002;2022-09-12T10:19:21;13.68;;;4.97;;
65651;SDS011;52350;51.546;7.002;2022-09-12T10:21:57;22.05;;;5.68;;
65651;SDS011;52350;51.546;7.002;2022-09-12T10:29:46;13.15;;;5.30;;
65651;SDS011;52350;51.546;7.002;2022-09-12T10:32:34;12.88;;;5.47;;
65651;SDS011;52350;51.546;7.002;2022-09-12T10:35:14;20.15;;;5.82;;
65651;SDS011;52350;51.546;7.002;2022-09-12T10:37:58;15.93;;;4.90;;
65651;SDS011;52350;51.546;7.002;2022-09-12T10:40:37;9.50;;;4.18;;
65651;SDS011;52350;51.546;7.002;2022-09-12T10:43:28;10.25;;;4.00;;
65651;SDS011;52350;51.546;7.002;2022-09-12T10:48:40;8.57;;;3.50;;
65651;SDS011;52350;51.546;7.002;2022-09-12T10:51:28;9.55;;;3.85;;
65651;SDS011;52350;51.546;7.002;2022-09-12T10:54:03;8.48;;;3.45;;
65651;SDS011;52350;51.546;7.002;2022-09-12T10:59:22;10.60;;;3.88;;
65651;SDS011;52350;51.546;7.002;2022-09-12T11:02:01;24.30;;;4.68;;
65651;SDS011;52350;51.546;7.002;2022-09-12T11:13:39;7.68;;;3.20;;
65651;SDS011;52350;51.546;7.002;2022-09-12T11:19:30;10.95;;;3.28;;
65651;SDS011;52350;51.546;7.002;2022-09-12T11:25:20;11.63;;;3.58;;
65651;SDS011;52350;51.546;7.002;2022-09-12T11:34:04;13.38;;;3.70;;
65651;SDS011;52350;51.546;7.002;2022-09-12T11:39:22;9.32;;;3.30;;
65651;SDS011;52350;51.546;7.002;2022-09-12T11:42:02;7.38;;;3.03;;
65651;SDS011;52350;51.546;7.002;2022-09-12T11:44:37;8.18;;;3.17;;
65651;SDS011;52350;51.546;7.002;2022-09-12T11:47:13;10.15;;;3.53;;
65651;SDS011;52350;51.546;7.002;2022-09-12T11:49:46;7.07;;;3.53;;
65651;SDS011;52350;51.546;7.002;2022-09-12T11:52:18;11.98;;;3.15;;
65651;SDS011;52350;51.546;7.002;2022-09-12T11:57:43;16.10;;;3.58;;
65651;SDS011;52350;51.546;7.002;2022-09-12T12:00:19;23.17;;;4.80;;
65651;SDS011;52350;51.546;7.002;2022-09-12T12:03:14;14.70;;;3.38;;
65651;SDS011;52350;51.546;7.002;2022-09-12T12:06:01;8.05;;;3.30;;
65651;SDS011;52350;51.546;7.002;2022-09-12T12:08:38;6.13;;;3.33;;
65651;SDS011;52350;51.546;7.002;2022-09-12T12:11:07;14.45;;;3.97;;
65651;SDS011;52350;51.546;7.002;2022-09-12T12:13:54;7.70;;;3.50;;
65651;SDS011;52350;51.546;7.002;2022-09-12T12:16:30;7.60;;;3.42;;
65651;SDS011;52350;51.546;7.002;2022-09-12T12:19:02;8.93;;;3.40;;
65651;SDS011;52350;51.546;7.002;2022-09-12T12:22:05;14.32;;;5.30;;
65651;SDS011;52350;51.546;7.002;2022-09-12T12:35:41;7.87;;;3.33;;
65651;SDS011;52350;51.546;7.002;2022-09-12T12:38:27;5.35;;;3.22;;
65651;SDS011;52350;51.546;7.002;2022-09-12T12:43:42;12.30;;;3.85;;
65651;SDS011;52350;51.546;7.002;2022-09-12T12:46:14;6.35;;;3.50;;
65651;SDS011;52350;51.546;7.002;2022-09-12T12:48:48;17.40;;;3.70;;
65651;SDS011;52350;51.546;7.002;2022-09-12T13:00:35;8.85;;;3.38;;
65651;SDS011;52350;51.546;7.002;2022-09-12T13:05:43;7.25;;;3.55;;
65651;SDS011;52350;51.546;7.002;2022-09-12T13:10:50;8.77;;;3.47;;
65651;SDS011;52350;51.546;7.002;2022-09-12T13:16:00;7.55;;;3.45;;
65651;SDS011;52350;51.546;7.002;2022-09-12T13:18:26;5.72;;;2.90;;
65651;SDS011;52350;51.546;7.002;2022-09-12T13:23:44;10.63;;;3.35;;
65651;SDS011;52350;51.546;7.002;2022-09-12T13:26:25;6.78;;;3.05;;
65651;SDS011;52350;51.546;7.002;2022-09-12T13:29:07;18.25;;;3.97;;
65651;SDS011;52350;51.546;7.002;2022-09-12T13:31:34;7.35;;;2.90;;
65651;SDS011;52350;51.546;7.002;2022-09-12T13:34:00;8.38;;;3.20;;
65651;SDS011;52350;51.546;7.002;2022-09-12T13:36:44;8.60;;;3.50;;
65651;SDS011;52350;51.546;7.002;2022-09-12T13:42:37;9.82;;;3.20;;
65651;SDS011;52350;51.546;7.002;2022-09-12T13:45:21;9.13;;;3.10;;
65651;SDS011;52350;51.546;7.002;2022-09-12T13:47:56;6.93;;;3.10;;
65651;SDS011;52350;51.546;7.002;2022-09-12T13:50:32;8.90;;;3.15;;
65651;SDS011;52350;51.546;7.002;2022-09-12T13:53:12;9.20;;;3.25;;
65651;SDS011;52350;51.546;7.002;2022-09-12T13:55:44;6.65;;;3.40;;
65651;SDS011;52350;51.546;7.002;2022-09-12T13:58:21;5.93;;;2.80;;
65651;SDS011;52350;51.546;7.002;2022-09-12T14:01:00;9.23;;;3.15;;
65651;SDS011;52350;51.546;7.002;2022-09-12T14:06:36;9.10;;;3.30;;
65651;SDS011;52350;51.546;7.002;2022-09-12T14:09:28;6.82;;;3.00;;
65651;SDS011;52350;51.546;7.002;2022-09-12T14:12:00;8.20;;;3.40;;
65651;SDS011;52350;51.546;7.002;2022-09-12T14:14:31;6.38;;;3.10;;
65651;SDS011;52350;51.546;7.002;2022-09-12T14:17:00;10.55;;;3.33;;
65651;SDS011;52350;51.546;7.002;2022-09-12T14:19:41;7.30;;;2.88;;
65651;SDS011;52350;51.546;7.002;2022-09-12T14:22:08;8.90;;;2.88;;
65651;SDS011;52350;51.546;7.002;2022-09-12T14:24:47;7.15;;;2.92;;
65651;SDS011;52350;51.546;7.002;2022-09-12T14:27:22;10.07;;;4.45;;
65651;SDS011;52350;51.546;7.002;2022-09-12T14:29:55;8.30;;;3.60;;
65651;SDS011;52350;51.546;7.002;2022-09-12T14:35:46;8.65;;;3.10;;
65651;SDS011;52350;51.546;7.002;2022-09-12T14:40:42;6.80;;;3.28;;
65651;SDS011;52350;51.546;7.002;2022-09-12T14:43:20;9.98;;;3.15;;
65651;SDS011;52350;51.546;7.002;2022-09-12T14:46:05;7.18;;;3.10;;
65651;SDS011;52350;51.546;7.002;2022-09-12T14:49:14;7.28;;;3.35;;
65651;SDS011;52350;51.546;7.002;2022-09-12T14:57:13;7.50;;;2.97;;
65651;SDS011;52350;51.546;7.002;2022-09-12T15:02:36;5.85;;;2.90;;
65651;SDS011;52350;51.546;7.002;2022-09-12T15:07:31;5.85;;;2.95;;
65651;SDS011;52350;51.546;7.002;2022-09-12T15:10:01;6.63;;;3.08;;
65651;SDS011;52350;51.546;7.002;2022-09-12T15:12:38;6.10;;;3.00;;
65651;SDS011;52350;51.546;7.002;2022-09-12T15:15:11;6.50;;;3.20;;
65651;SDS011;52350;51.546;7.002;2022-09-12T15:17:38;6.10;;;3.03;;
65651;SDS011;52350;51.546;7.002;2022-09-12T15:20:04;6.63;;;3.00;;
65651;SDS011;52350;51.546;7.002;2022-09-12T15:22:30;7.13;;;3.03;;
65651;SDS011;52350;51.546;7.002;2022-09-12T15:24:57;6.78;;;3.03;;
65651;SDS011;52350;51.546;7.002;2022-09-12T15:27:23;6.30;;;3.35;;
65651;SDS011;52350;51.546;7.002;2022-09-12T15:29:50;6.78;;;3.03;;
65651;SDS011;52350;51.546;7.002;2022-09-12T15:32:24;6.10;;;3.05;;
65651;SDS011;52350;51.546;7.002;2022-09-12T15:34:52;6.13;;;2.97;;
65651;SDS011;52350;51.546;7.002;2022-09-12T15:37:19;6.80;;;3.28;;
65651;SDS011;52350;51.546;7.002;2022-09-12T15:39:47;6.40;;;3.00;;
65651;SDS011;52350;51.546;7.002;2022-09-12T15:42:13;6.07;;;2.92;;
65651;SDS011;52350;51.546;7.002;2022-09-12T15:44:40;6.70;;;3.17;;
65651;SDS011;52350;51.546;7.002;2022-09-12T15:47:07;10.88;;;3.42;;
65651;SDS011;52350;51.546;7.002;2022-09-12T15:49:37;10.40;;;3.20;;
65651;SDS011;52350;51.546;7.002;2022-09-12T15:52:05;6.80;;;3.20;;
65651;SDS011;52350;51.546;7.002;2022-09-12T15:54:40;11.90;;;3.45;;
65651;SDS011;52350;51.546;7.002;2022-09-12T15:57:07;6.90;;;3.20;;
65651;SDS011;52350;51.546;7.002;2022-09-12T15:59:33;7.63;;;3.22;;
65651;SDS011;52350;51.546;7.002;2022-09-12T16:02:00;8.52;;;3.10;;
65651;SDS011;52350;51.546;7.002;2022-09-12T16:04:27;6.88;;;3.38;;
65651;SDS011;52350;51.546;7.002;2022-09-12T16:06:54;8.20;;;3.50;;
65651;SDS011;52350;51.546;7.002;2022-09-12T16:09:21;11.30;;;3.30;;
65651;SDS011;52350;51.546;7.002;2022-09-12T16:11:47;6.13;;;3.15;;
65651;SDS011;52350;51.546;7.002;2022-09-12T16:14:14;6.22;;;3.15;;
65651;SDS011;52350;51.546;7.002;2022-09-12T16:16:42;6.65;;;3.35;;
65651;SDS011;52350;51.546;7.002;2022-09-12T16:19:15;6.35;;;3.00;;
65651;SDS011;52350;51.546;7.002;2022-09-12T16:21:41;8.20;;;3.80;;
65651;SDS011;52350;51.546;7.002;2022-09-12T16:24:06;6.53;;;3.20;;
65651;SDS011;52350;51.546;7.002;2022-09-12T16:26:32;5.55;;;2.80;;
65651;SDS011;52350;51.546;7.002;2022-09-12T16:28:58;7.28;;;3.40;;
65651;SDS011;52350;51.546;7.002;2022-09-12T16:31:24;6.13;;;3.33;;
65651;SDS011;52350;51.546;7.002;2022-09-12T16:33:51;8.02;;;3.33;;
65651;SDS011;52350;51.546;7.002;2022-09-12T16:36:18;8.38;;;3.08;;
65651;SDS011;52350;51.546;7.002;2022-09-12T16:38:48;6.63;;;3.15;;
65651;SDS011;52350;51.546;7.002;2022-09-12T16:41:17;7.05;;;3.40;;
65651;SDS011;52350;51.546;7.002;2022-09-12T16:43:44;6.38;;;3.28;;
65651;SDS011;52350;51.546;7.002;2022-09-12T16:46:14;6.38;;;3.10;;
65651;SDS011;52350;51.546;7.002;2022-09-12T16:48:45;5.80;;;3.00;;
65651;SDS011;52350;51.546;7.002;2022-09-12T16:51:20;7.80;;;3.20;;
65651;SDS011;52350;51.546;7.002;2022-09-12T16:53:55;5.65;;;2.80;;
65651;SDS011;52350;51.546;7.002;2022-09-12T16:56:22;6.85;;;3.20;;
65651;SDS011;52350;51.546;7.002;2022-09-12T16:58:48;5.65;;;3.10;;
65651;SDS011;52350;51.546;7.002;2022-09-12T17:01:15;9.70;;;3.40;;
65651;SDS011;52350;51.546;7.002;2022-09-12T17:06:12;5.60;;;3.08;;
65651;SDS011;52350;51.546;7.002;2022-09-12T17:08:41;9.02;;;3.17;;
65651;SDS011;52350;51.546;7.002;2022-09-12T17:11:12;6.78;;;2.90;;
65651;SDS011;52350;51.546;7.002;2022-09-12T17:13:45;7.88;;;3.20;;
65651;SDS011;52350;51.546;7.002;2022-09-12T17:16:17;5.63;;;2.80;;
65651;SDS011;52350;51.546;7.002;2022-09-12T17:18:44;6.88;;;3.15;;
65651;SDS011;52350;51.546;7.002;2022-09-12T17:21:10;6.10;;;3.08;;
65651;SDS011;52350;51.546;7.002;2022-09-12T17:23:37;6.00;;;3.28;;
65651;SDS011;52350;51.546;7.002;2022-09-12T17:26:03;7.03;;;3.45;;
65651;SDS011;52350;51.546;7.002;2022-09-12T17:28:30;6.32;;;3.10;;
65651;SDS011;52350;51.546;7.002;2022-09-12T17:33:26;8.40;;;3.30;;
65651;SDS011;52350;51.546;7.002;2022-09-12T17:35:53;8.90;;;3.83;;
65651;SDS011;52350;51.546;7.002;2022-09-12T17:38:19;6.57;;;3.45;;
65651;SDS011;52350;51.546;7.002;2022-09-12T17:40:45;6.63;;;3.05;;
65651;SDS011;52350;51.546;7.002;2022-09-12T17:43:13;6.53;;;3.30;;
65651;SDS011;52350;51.546;7.002;2022-09-12T17:45:39;6.95;;;3.90;;
65651;SDS011;52350;51.546;7.002;2022-09-12T17:48:06;6.70;;;3.60;;
65651;SDS011;52350;51.546;7.002;2022-09-12T17:50:38;6.83;;;3.70;;
65651;SDS011;52350;51.546;7.002;2022-09-12T17:53:07;6.90;;;3.20;;
65651;SDS011;52350;51.546;7.002;2022-09-12T17:55:34;7.18;;;3.33;;
65651;SDS011;52350;51.546;7.002;2022-09-12T17:58:01;6.30;;;3.20;;
65651;SDS011;52350;51.546;7.002;2022-09-12T18:00:28;6.82;;;3.65;;
65651;SDS011;52350;51.546;7.002;2022-09-12T18:03:14;7.40;;;3.83;;